Weather at Singapore Changi Airport

Public forecast

Using degrees Celsius for public forecast. Weather courtesy of forecast.io.

Current aviation weather report (METAR) for Singapore Changi Airport

Retrieved 2021/10/22 06:30 UTC (22 minutes ago):

WSSS 220630Z 19011KT 9999 FEW020TCU SCT160 30/25 Q1011 NOSIG

Aviation forecast (TAF) for Singapore Changi Airport

Retrieved 2021/10/22 06:09 UTC (43 minutes ago):

TAF WSSS 220500Z 2206/2312 21005KT 9999 FEW015 SCT020 BKN030 TEMPO 2206/2209 3000 TSRA FEW012CB BKN015